createdAt,value
2023-10-10T00:03:18.315Z,7.22
2023-10-10T00:08:19.871Z,7.32
2023-10-10T00:13:21.462Z,10.20
2023-10-10T00:18:23.302Z,11.15
2023-10-10T00:23:24.847Z,9.95
2023-10-10T00:28:26.380Z,17.05
2023-10-10T00:33:27.917Z,17.65
2023-10-10T00:38:29.446Z,18.48
2023-10-10T00:43:31.015Z,18.98
2023-10-10T00:48:34.750Z,20.55
2023-10-10T00:53:39.476Z,22.80
2023-10-10T00:58:41.042Z,21.15
2023-10-10T01:03:43.968Z,23.60
2023-10-10T01:08:53.912Z,22.35
2023-10-10T01:13:55.445Z,23.40
2023-10-10T01:18:57.151Z,22.98
2023-10-10T01:23:59.494Z,20.52
2023-10-10T01:29:01.013Z,25.30
2023-10-10T01:34:02.683Z,23.50
2023-10-10T01:39:14.068Z,23.55
2023-10-10T01:44:16.035Z,23.00
2023-10-10T01:49:18.328Z,21.42
2023-10-10T01:54:19.889Z,21.50
2023-10-10T01:59:21.454Z,20.20
2023-10-10T02:04:23.091Z,21.25
2023-10-10T02:09:25.064Z,19.85
2023-10-10T02:14:26.785Z,24.83
2023-10-10T02:19:29.556Z,25.02
2023-10-10T02:24:32.677Z,20.33
2023-10-10T02:29:34.306Z,30.63
2023-10-10T02:34:36.823Z,25.45
2023-10-10T02:39:38.329Z,25.13
2023-10-10T02:44:40.051Z,22.30
2023-10-10T02:49:42.147Z,35.90
2023-10-10T02:54:44.085Z,24.77
2023-10-10T02:59:45.593Z,21.15
2023-10-10T03:04:48.042Z,30.75
2023-10-10T03:09:49.655Z,20.05
2023-10-10T03:14:51.472Z,26.25
2023-10-10T03:19:53.531Z,21.50
2023-10-10T03:24:55.790Z,22.50
2023-10-10T03:29:57.432Z,29.48
2023-10-10T03:34:59.790Z,49.92
2023-10-10T03:40:01.458Z,33.78
2023-10-10T03:45:03.128Z,25.33
2023-10-10T03:50:04.980Z,28.65
2023-10-10T03:55:06.718Z,18.35
2023-10-10T04:00:08.763Z,22.80
2023-10-10T04:05:26.374Z,20.67
2023-10-10T04:10:29.032Z,27.93
2023-10-10T04:15:34.300Z,25.48
2023-10-10T04:20:35.889Z,21.80
2023-10-10T04:25:37.457Z,28.88
2023-10-10T04:30:39.011Z,27.27
2023-10-10T04:35:40.554Z,22.40
2023-10-10T04:40:42.347Z,22.38
2023-10-10T04:45:43.851Z,24.20
2023-10-10T04:50:52.725Z,25.77
2023-10-10T04:55:54.224Z,28.50
2023-10-10T05:00:55.683Z,24.65
2023-10-10T05:05:58.700Z,32.65
2023-10-10T05:11:00.181Z,34.88
2023-10-10T05:16:05.807Z,37.92
2023-10-10T05:26:14.695Z,34.90
2023-10-10T05:31:16.267Z,38.33
2023-10-10T05:36:17.757Z,36.55
2023-10-10T05:41:19.251Z,35.08
2023-10-10T05:46:20.813Z,33.40
2023-10-10T05:51:22.437Z,38.97
2023-10-10T05:56:24.019Z,32.13
2023-10-10T06:01:25.562Z,33.22
2023-10-10T06:06:27.031Z,37.80
2023-10-10T06:11:28.890Z,21.90
2023-10-10T06:16:30.457Z,24.05
2023-10-10T06:21:31.971Z,24.73
2023-10-10T06:26:33.500Z,21.00
2023-10-10T06:31:36.017Z,18.90
2023-10-10T06:36:37.810Z,22.67
2023-10-10T06:41:39.352Z,21.45
2023-10-10T06:46:41.961Z,20.48
2023-10-10T06:51:43.512Z,24.55
2023-10-10T06:56:49.525Z,18.52
2023-10-10T07:01:50.973Z,19.10
2023-10-10T07:06:52.413Z,15.18
2023-10-10T07:11:55.430Z,17.27
2023-10-10T07:16:56.892Z,15.50
2023-10-10T07:21:58.950Z,14.80
2023-10-10T07:27:00.425Z,15.32
2023-10-10T07:32:01.895Z,20.63
2023-10-10T07:37:03.707Z,16.45
2023-10-10T07:42:05.186Z,16.45
2023-10-10T07:47:06.757Z,12.23
2023-10-10T07:52:08.336Z,14.23
2023-10-10T07:57:09.779Z,17.05
2023-10-10T08:02:11.290Z,15.45
2023-10-10T08:07:12.752Z,16.30
2023-10-10T08:12:15.140Z,16.40
2023-10-10T08:17:16.651Z,15.93
2023-10-10T08:22:19.802Z,14.05
2023-10-10T08:27:21.364Z,11.70
2023-10-10T08:32:23.000Z,17.10
2023-10-10T08:37:24.549Z,11.82
2023-10-10T08:42:27.623Z,9.57
2023-10-10T08:47:29.222Z,14.18
2023-10-10T08:52:31.868Z,10.65
2023-10-10T08:57:33.316Z,11.15
2023-10-10T09:02:35.356Z,7.55
2023-10-10T09:07:37.057Z,11.07
2023-10-10T09:12:38.848Z,9.68
2023-10-10T09:17:41.050Z,6.55
2023-10-10T09:22:42.689Z,9.75
2023-10-10T09:27:58.820Z,6.30
2023-10-10T09:33:01.193Z,7.20
2023-10-10T09:38:03.958Z,7.78
2023-10-10T09:43:10.499Z,6.28
2023-10-10T09:48:12.428Z,5.55
2023-10-10T09:53:14.317Z,10.25
2023-10-10T09:58:16.882Z,4.82
2023-10-10T10:03:20.772Z,6.13
2023-10-10T10:08:25.224Z,4.50
2023-10-10T10:13:42.010Z,6.65
2023-10-10T10:18:44.049Z,16.42
2023-10-10T10:23:48.800Z,4.90
2023-10-10T10:28:50.333Z,4.63
2023-10-10T10:34:09.267Z,6.13
2023-10-10T10:39:22.354Z,8.13
2023-10-10T10:44:29.219Z,8.95
2023-10-10T10:49:39.394Z,8.93
2023-10-10T10:54:44.491Z,8.40
2023-10-10T11:09:54.670Z,5.07
2023-10-10T11:14:57.360Z,3.92
2023-10-10T11:19:58.892Z,3.92
2023-10-10T11:25:00.567Z,4.80
2023-10-10T11:30:05.624Z,6.22
2023-10-10T11:35:07.487Z,5.88
2023-10-10T11:40:15.360Z,4.95
2023-10-10T11:45:17.908Z,4.03
2023-10-10T11:50:20.456Z,4.43
2023-10-10T11:55:21.980Z,4.28
2023-10-10T12:00:27.871Z,5.50
2023-10-10T12:05:29.904Z,4.97
2023-10-10T12:10:31.404Z,5.32
2023-10-10T12:15:32.833Z,4.30
2023-10-10T12:20:34.321Z,6.35
2023-10-10T12:25:35.811Z,6.45
2023-10-10T12:30:40.739Z,5.38
2023-10-10T12:35:45.215Z,4.95
2023-10-10T12:40:46.713Z,8.03
2023-10-10T12:45:48.245Z,7.63
2023-10-10T12:50:53.481Z,9.15
2023-10-10T12:55:55.100Z,9.70
2023-10-10T13:00:57.028Z,8.15
2023-10-10T13:05:59.949Z,8.82
2023-10-10T13:11:01.478Z,8.25
2023-10-10T13:16:02.945Z,8.05
2023-10-10T13:21:04.532Z,8.45
2023-10-10T13:26:06.002Z,8.90
2023-10-10T13:31:07.461Z,8.27
2023-10-10T13:36:10.761Z,10.00
2023-10-10T13:41:12.227Z,12.82
2023-10-10T13:46:14.783Z,13.75
2023-10-10T13:51:17.364Z,16.08
2023-10-10T13:56:18.859Z,12.02
2023-10-10T14:01:20.522Z,13.38
2023-10-10T14:06:22.280Z,12.02
2023-10-10T14:11:23.798Z,15.27
2023-10-10T14:16:26.396Z,14.43
2023-10-10T14:21:28.399Z,15.77
2023-10-10T14:26:29.911Z,16.48
2023-10-10T14:31:32.524Z,20.05
2023-10-10T14:36:34.260Z,18.80
2023-10-10T14:41:36.177Z,22.27
2023-10-10T14:46:37.728Z,23.20
2023-10-10T14:51:39.277Z,25.25
2023-10-10T14:56:42.367Z,25.77
2023-10-10T15:01:43.850Z,26.00
2023-10-10T15:06:49.809Z,27.52
2023-10-10T15:11:53.797Z,25.00
2023-10-10T15:16:55.392Z,26.33
2023-10-10T15:21:56.857Z,29.55
2023-10-10T15:26:59.177Z,27.38
2023-10-10T15:32:00.630Z,30.85
2023-10-10T15:37:02.103Z,27.58
2023-10-10T15:42:03.651Z,31.50
2023-10-10T15:47:05.219Z,32.80
2023-10-10T15:52:06.704Z,32.33
2023-10-10T15:57:08.170Z,30.80
2023-10-10T16:02:09.814Z,38.70
2023-10-10T16:07:11.483Z,36.35
2023-10-10T16:12:13.038Z,37.45
2023-10-10T16:17:14.581Z,43.83
2023-10-10T16:22:16.274Z,35.13
2023-10-10T16:27:17.901Z,38.30
2023-10-10T16:32:19.922Z,38.67
2023-10-10T16:37:21.480Z,45.47
2023-10-10T16:42:22.933Z,40.85
2023-10-10T16:47:24.414Z,42.00
2023-10-10T16:52:25.884Z,44.47
2023-10-10T16:57:27.379Z,45.88
2023-10-10T17:02:29.747Z,39.95
2023-10-10T17:07:32.138Z,39.15
2023-10-10T17:12:33.665Z,43.67
2023-10-10T17:17:35.179Z,40.30
2023-10-10T17:22:36.766Z,39.92
2023-10-10T17:27:38.269Z,39.55
2023-10-10T17:32:39.820Z,36.30
2023-10-10T17:37:41.351Z,40.33
2023-10-10T17:42:46.647Z,36.83
2023-10-10T17:47:48.346Z,37.15
2023-10-10T17:52:50.150Z,28.40
2023-10-10T17:57:51.626Z,34.47
2023-10-10T18:02:53.228Z,32.38
2023-10-10T18:07:54.749Z,21.85
2023-10-10T18:12:56.216Z,29.33
2023-10-10T18:17:58.069Z,23.67
2023-10-10T18:22:59.819Z,23.20
2023-10-10T18:28:01.546Z,23.50
2023-10-10T18:33:06.047Z,20.35
2023-10-10T18:38:08.277Z,20.80
2023-10-10T18:43:09.711Z,18.45
2023-10-10T18:48:11.330Z,22.23
2023-10-10T18:53:12.896Z,18.88
2023-10-10T18:58:14.379Z,17.95
2023-10-10T19:03:15.967Z,15.38
2023-10-10T19:08:18.318Z,19.20
2023-10-10T19:13:19.895Z,15.00
2023-10-10T19:18:21.458Z,15.57
2023-10-10T19:23:23.020Z,14.88
2023-10-10T19:28:24.494Z,12.98
2023-10-10T19:33:26.019Z,13.88
2023-10-10T19:38:27.591Z,13.05
2023-10-10T19:43:29.039Z,12.50
2023-10-10T19:48:30.749Z,10.73
2023-10-10T19:53:32.493Z,15.15
2023-10-10T19:58:33.964Z,14.35
2023-10-10T20:03:35.666Z,12.30
2023-10-10T20:08:37.364Z,15.48
2023-10-10T20:13:38.914Z,12.77
2023-10-10T20:18:40.463Z,13.63
2023-10-10T20:23:42.937Z,14.73
2023-10-10T20:28:44.814Z,12.15
2023-10-10T20:33:46.394Z,10.38
2023-10-10T20:38:48.105Z,18.23
2023-10-10T20:43:49.817Z,11.63
2023-10-10T20:48:51.360Z,14.27
2023-10-10T20:53:52.949Z,13.43
2023-10-10T20:58:54.656Z,12.52
2023-10-10T21:03:56.294Z,10.85
2023-10-10T21:08:57.883Z,14.15
2023-10-10T21:13:59.529Z,15.13
2023-10-10T21:19:01.034Z,13.43
2023-10-10T21:24:02.534Z,16.73
2023-10-10T21:29:04.143Z,13.20
2023-10-10T21:34:05.765Z,11.05
2023-10-10T21:39:07.533Z,11.90
2023-10-10T21:44:08.987Z,12.15
2023-10-10T21:49:10.734Z,17.02
2023-10-10T21:54:12.255Z,11.70
2023-10-10T21:59:13.827Z,12.27
2023-10-10T22:04:15.452Z,10.68
2023-10-10T22:09:17.238Z,10.57
2023-10-10T22:14:18.845Z,12.77
2023-10-10T22:19:20.326Z,13.55
2023-10-10T22:24:21.825Z,13.52
2023-10-10T22:29:23.317Z,11.75
2023-10-10T22:34:24.808Z,15.02
2023-10-10T22:39:26.305Z,10.98
2023-10-10T22:44:28.049Z,14.45
2023-10-10T22:49:29.549Z,16.67
2023-10-10T22:54:31.310Z,15.25
2023-10-10T22:59:32.836Z,14.65
2023-10-10T23:04:34.437Z,13.57
2023-10-10T23:09:36.027Z,12.60
2023-10-10T23:14:37.506Z,16.13
2023-10-10T23:19:39.085Z,13.32
2023-10-10T23:24:40.605Z,12.02
2023-10-10T23:29:42.099Z,14.65
2023-10-10T23:34:43.594Z,11.23
2023-10-10T23:39:45.056Z,13.52
2023-10-10T23:44:47.272Z,11.40
2023-10-10T23:49:48.790Z,8.70
2023-10-10T23:54:50.689Z,12.38
2023-10-10T23:59:52.175Z,11.98
